sensor_id;sensor_type;location;lat;lon;timestamp;noise_LAeq;noise_LA_min;noise_LA_max;noise_LA01;noise_LA95
67306;Laerm;57661;51.436;5.978;2024-01-16T00:00:05;28.25;27.32;29.31;;
67306;Laerm;57661;51.436;5.978;2024-01-16T00:00:16;28.92;27.20;35.48;;
67306;Laerm;57661;51.436;5.978;2024-01-16T00:00:27;28.36;27.14;31.09;;
67306;Laerm;57661;51.436;5.978;2024-01-16T00:00:37;28.27;27.15;29.25;;
67306;Laerm;57661;51.436;5.978;2024-01-16T00:00:47;28.52;27.34;30.31;;
67306;Laerm;57661;51.436;5.978;2024-01-16T00:00:57;28.54;27.29;32.92;;
67306;Laerm;57661;51.436;5.978;2024-01-16T00:01:08;28.22;27.04;29.00;;
67306;Laerm;57661;51.436;5.978;2024-01-16T00:01:18;32.09;27.44;41.89;;
67306;Laerm;57661;51.436;5.978;2024-01-16T00:01:30;31.83;28.88;37.97;;
67306;Laerm;57661;51.436;5.978;2024-01-16T00:01:43;31.18;27.43;37.71;;
67306;Laerm;57661;51.436;5.978;2024-01-16T00:01:54;28.26;27.17;29.38;;
67306;Laerm;57661;51.436;5.978;2024-01-16T00:02:04;28.23;27.37;29.11;;
67306;Laerm;57661;51.436;5.978;2024-01-16T00:02:15;28.26;27.39;29.20;;
67306;Laerm;57661;51.436;5.978;2024-01-16T00:02:25;28.27;27.32;29.58;;
67306;Laerm;57661;51.436;5.978;2024-01-16T00:02:35;28.22;27.28;29.16;;
67306;Laerm;57661;51.436;5.978;2024-01-16T00:02:45;28.22;27.21;29.14;;
67306;Laerm;57661;51.436;5.978;2024-01-16T00:02:55;28.23;27.17;29.08;;
67306;Laerm;57661;51.436;5.978;2024-01-16T00:03:06;28.25;27.23;29.11;;
67306;Laerm;57661;51.436;5.978;2024-01-16T00:03:16;28.25;27.11;29.38;;
67306;Laerm;57661;51.436;5.978;2024-01-16T00:03:26;28.24;27.40;29.29;;
67306;Laerm;57661;51.436;5.978;2024-01-16T00:03:39;28.25;27.21;29.30;;
67306;Laerm;57661;51.436;5.978;2024-01-16T00:03:49;28.26;27.13;29.12;;
67306;Laerm;57661;51.436;5.978;2024-01-16T00:04:00;28.25;26.99;29.20;;
67306;Laerm;57661;51.436;5.978;2024-01-16T00:04:10;28.22;27.32;29.21;;
67306;Laerm;57661;51.436;5.978;2024-01-16T00:04:20;28.25;27.40;29.26;;
67306;Laerm;57661;51.436;5.978;2024-01-16T00:04:31;28.24;27.19;29.27;;
67306;Laerm;57661;51.436;5.978;2024-01-16T00:04:41;28.27;27.30;29.14;;
67306;Laerm;57661;51.436;5.978;2024-01-16T00:04:51;28.36;27.37;29.31;;
67306;Laerm;57661;51.436;5.978;2024-01-16T00:05:02;28.27;27.37;29.12;;
67306;Laerm;57661;51.436;5.978;2024-01-16T00:05:13;28.22;27.37;29.25;;
67306;Laerm;57661;51.436;5.978;2024-01-16T00:05:23;28.23;27.42;29.00;;
67306;Laerm;57661;51.436;5.978;2024-01-16T00:05:33;28.30;27.28;29.12;;
67306;Laerm;57661;51.436;5.978;2024-01-16T00:05:43;28.26;26.89;29.11;;
67306;Laerm;57661;51.436;5.978;2024-01-16T00:05:54;28.27;27.55;29.20;;
67306;Laerm;57661;51.436;5.978;2024-01-16T00:06:04;28.22;27.28;29.28;;
67306;Laerm;57661;51.436;5.978;2024-01-16T00:06:15;28.23;27.41;29.08;;
67306;Laerm;57661;51.436;5.978;2024-01-16T00:06:26;28.27;27.35;29.06;;
67306;Laerm;57661;51.436;5.978;2024-01-16T00:06:40;28.24;27.24;29.23;;
67306;Laerm;57661;51.436;5.978;2024-01-16T00:06:50;28.24;27.12;29.08;;
67306;Laerm;57661;51.436;5.978;2024-01-16T00:07:00;28.24;27.27;29.17;;
67306;Laerm;57661;51.436;5.978;2024-01-16T00:07:11;28.24;27.28;29.08;;
67306;Laerm;57661;51.436;5.978;2024-01-16T00:07:21;28.23;27.30;29.11;;
67306;Laerm;57661;51.436;5.978;2024-01-16T00:07:31;28.26;27.29;29.08;;
67306;Laerm;57661;51.436;5.978;2024-01-16T00:07:43;28.25;27.31;29.34;;
67306;Laerm;57661;51.436;5.978;2024-01-16T00:07:53;28.30;27.28;29.48;;
67306;Laerm;57661;51.436;5.978;2024-01-16T00:08:04;28.24;27.21;29.07;;
67306;Laerm;57661;51.436;5.978;2024-01-16T00:08:14;28.25;27.37;29.36;;
67306;Laerm;57661;51.436;5.978;2024-01-16T00:08:24;28.27;27.31;29.17;;
67306;Laerm;57661;51.436;5.978;2024-01-16T00:08:34;28.26;27.23;29.17;;
67306;Laerm;57661;51.436;5.978;2024-01-16T00:08:45;28.26;27.27;29.37;;
67306;Laerm;57661;51.436;5.978;2024-01-16T00:08:55;28.29;27.42;29.19;;
67306;Laerm;57661;51.436;5.978;2024-01-16T00:09:06;28.34;27.44;29.23;;
67306;Laerm;57661;51.436;5.978;2024-01-16T00:09:16;29.29;27.44;43.76;;
67306;Laerm;57661;51.436;5.978;2024-01-16T00:09:26;28.31;27.22;29.24;;
67306;Laerm;57661;51.436;5.978;2024-01-16T00:09:36;28.25;27.40;29.29;;
67306;Laerm;57661;51.436;5.978;2024-01-16T00:09:47;28.24;27.02;29.04;;
67306;Laerm;57661;51.436;5.978;2024-01-16T00:09:57;28.24;27.25;29.54;;
67306;Laerm;57661;51.436;5.978;2024-01-16T00:10:07;28.23;27.18;29.19;;
67306;Laerm;57661;51.436;5.978;2024-01-16T00:10:17;28.24;26.83;29.08;;
67306;Laerm;57661;51.436;5.978;2024-01-16T00:10:28;28.22;27.24;28.97;;
67306;Laerm;57661;51.436;5.978;2024-01-16T00:10:38;28.22;27.32;29.07;;
67306;Laerm;57661;51.436;5.978;2024-01-16T00:10:48;28.23;27.30;29.26;;
67306;Laerm;57661;51.436;5.978;2024-01-16T00:10:58;28.23;27.37;29.19;;
67306;Laerm;57661;51.436;5.978;2024-01-16T00:11:08;28.24;27.29;29.24;;
67306;Laerm;57661;51.436;5.978;2024-01-16T00:11:19;28.72;27.37;30.79;;
67306;Laerm;57661;51.436;5.978;2024-01-16T00:11:29;28.33;27.50;29.34;;
67306;Laerm;57661;51.436;5.978;2024-01-16T00:11:40;28.27;27.41;29.12;;
67306;Laerm;57661;51.436;5.978;2024-01-16T00:11:51;28.24;27.34;29.16;;
67306;Laerm;57661;51.436;5.978;2024-01-16T00:12:04;28.25;27.00;29.14;;
67306;Laerm;57661;51.436;5.978;2024-01-16T00:12:17;28.25;27.25;29.40;;
67306;Laerm;57661;51.436;5.978;2024-01-16T00:12:27;28.25;27.18;28.98;;
67306;Laerm;57661;51.436;5.978;2024-01-16T00:12:38;28.23;27.29;29.23;;
67306;Laerm;57661;51.436;5.978;2024-01-16T00:12:50;28.22;27.40;29.58;;
67306;Laerm;57661;51.436;5.978;2024-01-16T00:13:00;28.25;27.19;29.14;;
67306;Laerm;57661;51.436;5.978;2024-01-16T00:13:10;28.24;27.47;29.07;;
67306;Laerm;57661;51.436;5.978;2024-01-16T00:13:20;28.22;27.13;29.28;;
67306;Laerm;57661;51.436;5.978;2024-01-16T00:13:31;28.24;27.33;29.21;;
67306;Laerm;57661;51.436;5.978;2024-01-16T00:13:42;28.23;27.30;29.28;;
67306;Laerm;57661;51.436;5.978;2024-01-16T00:13:52;28.23;27.40;29.10;;
67306;Laerm;57661;51.436;5.978;2024-01-16T00:14:03;28.51;27.14;40.43;;
67306;Laerm;57661;51.436;5.978;2024-01-16T00:14:14;28.24;27.41;29.17;;
67306;Laerm;57661;51.436;5.978;2024-01-16T00:14:24;28.20;27.30;29.15;;
67306;Laerm;57661;51.436;5.978;2024-01-16T00:14:35;28.31;27.34;30.91;;
67306;Laerm;57661;51.436;5.978;2024-01-16T00:14:46;29.27;27.42;45.40;;
67306;Laerm;57661;51.436;5.978;2024-01-16T00:14:56;28.26;27.26;29.11;;
67306;Laerm;57661;51.436;5.978;2024-01-16T00:15:06;28.26;27.26;29.16;;
67306;Laerm;57661;51.436;5.978;2024-01-16T00:15:17;28.21;27.20;29.05;;
67306;Laerm;57661;51.436;5.978;2024-01-16T00:15:27;28.27;27.29;29.22;;
67306;Laerm;57661;51.436;5.978;2024-01-16T00:15:37;28.27;27.34;29.03;;
67306;Laerm;57661;51.436;5.978;2024-01-16T00:15:48;28.22;27.35;29.10;;
67306;Laerm;57661;51.436;5.978;2024-01-16T00:16:01;28.26;27.43;29.48;;
67306;Laerm;57661;51.436;5.978;2024-01-16T00:16:11;28.23;27.38;29.10;;
67306;Laerm;57661;51.436;5.978;2024-01-16T00:16:21;28.24;27.34;29.00;;
67306;Laerm;57661;51.436;5.978;2024-01-16T00:16:32;28.23;27.16;29.10;;
67306;Laerm;57661;51.436;5.978;2024-01-16T00:16:45;28.28;27.27;29.07;;
67306;Laerm;57661;51.436;5.978;2024-01-16T00:16:58;28.25;27.15;29.23;;
67306;Laerm;57661;51.436;5.978;2024-01-16T00:17:08;28.24;27.33;29.08;;
67306;Laerm;57661;51.436;5.978;2024-01-16T00:17:19;28.23;27.38;29.27;;
67306;Laerm;57661;51.436;5.978;2024-01-16T00:17:29;28.24;27.43;29.49;;
67306;Laerm;57661;51.436;5.978;2024-01-16T00:17:39;28.26;27.27;29.28;;
67306;Laerm;57661;51.436;5.978;2024-01-16T00:17:49;28.27;27.42;29.26;;
67306;Laerm;57661;51.436;5.978;2024-01-16T00:18:01;28.28;27.33;29.53;;
67306;Laerm;57661;51.436;5.978;2024-01-16T00:18:11;28.21;27.26;29.08;;
67306;Laerm;57661;51.436;5.978;2024-01-16T00:18:22;28.25;27.36;29.22;;
67306;Laerm;57661;51.436;5.978;2024-01-16T00:18:32;28.24;27.28;29.35;;
67306;Laerm;57661;51.436;5.978;2024-01-16T00:18:42;28.25;27.31;29.24;;
67306;Laerm;57661;51.436;5.978;2024-01-16T00:18:52;28.26;26.94;29.26;;
67306;Laerm;57661;51.436;5.978;2024-01-16T00:19:02;28.27;27.34;29.08;;
67306;Laerm;57661;51.436;5.978;2024-01-16T00:19:13;28.22;27.02;29.02;;
67306;Laerm;57661;51.436;5.978;2024-01-16T00:19:23;28.26;27.29;29.14;;
67306;Laerm;57661;51.436;5.978;2024-01-16T00:19:33;28.28;27.50;31.36;;
67306;Laerm;57661;51.436;5.978;2024-01-16T00:19:43;28.26;27.37;29.18;;
67306;Laerm;57661;51.436;5.978;2024-01-16T00:19:54;28.25;27.21;29.38;;
67306;Laerm;57661;51.436;5.978;2024-01-16T00:20:04;28.27;27.31;32.46;;
67306;Laerm;57661;51.436;5.978;2024-01-16T00:20:15;28.24;27.13;29.13;;
67306;Laerm;57661;51.436;5.978;2024-01-16T00:20:25;28.26;27.21;29.09;;
67306;Laerm;57661;51.436;5.978;2024-01-16T00:20:35;28.25;27.10;29.31;;
67306;Laerm;57661;51.436;5.978;2024-01-16T00:20:46;28.23;27.43;29.03;;
67306;Laerm;57661;51.436;5.978;2024-01-16T00:20:56;28.26;27.54;29.10;;
67306;Laerm;57661;51.436;5.978;2024-01-16T00:21:06;28.26;27.21;29.21;;
67306;Laerm;57661;51.436;5.978;2024-01-16T00:21:16;28.26;27.11;28.99;;
67306;Laerm;57661;51.436;5.978;2024-01-16T00:21:27;28.24;27.27;28.92;;
67306;Laerm;57661;51.436;5.978;2024-01-16T00:21:40;28.24;27.23;29.20;;
67306;Laerm;57661;51.436;5.978;2024-01-16T00:21:50;28.24;27.26;29.36;;
67306;Laerm;57661;51.436;5.978;2024-01-16T00:22:01;28.26;27.35;29.08;;
67306;Laerm;57661;51.436;5.978;2024-01-16T00:22:13;28.22;27.12;29.31;;
67306;Laerm;57661;51.436;5.978;2024-01-16T00:22:23;28.21;27.35;28.99;;
67306;Laerm;57661;51.436;5.978;2024-01-16T00:22:33;28.23;27.34;29.13;;
67306;Laerm;57661;51.436;5.978;2024-01-16T00:22:43;28.43;27.31;36.74;;
67306;Laerm;57661;51.436;5.978;2024-01-16T00:22:54;28.23;27.31;29.12;;
67306;Laerm;57661;51.436;5.978;2024-01-16T00:23:04;28.26;27.16;29.05;;
67306;Laerm;57661;51.436;5.978;2024-01-16T00:23:14;28.25;27.31;29.47;;
67306;Laerm;57661;51.436;5.978;2024-01-16T00:23:24;28.27;27.38;29.08;;
67306;Laerm;57661;51.436;5.978;2024-01-16T00:23:35;28.32;27.32;29.49;;
67306;Laerm;57661;51.436;5.978;2024-01-16T00:23:45;28.31;27.48;29.16;;
67306;Laerm;57661;51.436;5.978;2024-01-16T00:23:55;28.25;26.95;29.31;;
67306;Laerm;57661;51.436;5.978;2024-01-16T00:24:05;28.21;27.15;29.20;;
67306;Laerm;57661;51.436;5.978;2024-01-16T00:24:16;28.26;27.37;29.08;;
67306;Laerm;57661;51.436;5.978;2024-01-16T00:24:26;28.26;27.34;29.13;;
67306;Laerm;57661;51.436;5.978;2024-01-16T00:24:36;28.26;27.35;29.20;;
67306;Laerm;57661;51.436;5.978;2024-01-16T00:24:46;28.26;27.42;29.17;;
67306;Laerm;57661;51.436;5.978;2024-01-16T00:24:57;28.30;27.37;29.07;;
67306;Laerm;57661;51.436;5.978;2024-01-16T00:25:07;28.42;27.53;29.81;;
67306;Laerm;57661;51.436;5.978;2024-01-16T00:25:17;28.24;27.40;29.02;;
67306;Laerm;57661;51.436;5.978;2024-01-16T00:25:29;28.27;27.24;29.13;;
67306;Laerm;57661;51.436;5.978;2024-01-16T00:25:40;28.23;27.26;28.92;;
67306;Laerm;57661;51.436;5.978;2024-01-16T00:25:51;28.21;27.13;29.06;;
67306;Laerm;57661;51.436;5.978;2024-01-16T00:26:01;28.23;27.37;28.93;;
67306;Laerm;57661;51.436;5.978;2024-01-16T00:26:21;28.25;27.24;29.21;;
67306;Laerm;57661;51.436;5.978;2024-01-16T00:26:32;28.24;27.39;29.23;;
67306;Laerm;57661;51.436;5.978;2024-01-16T00:26:42;28.22;27.41;29.16;;
67306;Laerm;57661;51.436;5.978;2024-01-16T00:26:52;28.26;27.19;29.18;;
67306;Laerm;57661;51.436;5.978;2024-01-16T00:27:02;28.27;27.38;29.10;;
67306;Laerm;57661;51.436;5.978;2024-01-16T00:27:13;28.32;27.36;29.52;;
67306;Laerm;57661;51.436;5.978;2024-01-16T00:27:23;35.25;27.98;44.50;;
67306;Laerm;57661;51.436;5.978;2024-01-16T00:27:33;36.01;31.12;41.74;;
67306;Laerm;57661;51.436;5.978;2024-01-16T00:27:43;33.08;27.94;41.79;;
67306;Laerm;57661;51.436;5.978;2024-01-16T00:27:54;28.31;27.43;29.45;;
67306;Laerm;57661;51.436;5.978;2024-01-16T00:28:05;28.27;27.33;29.10;;
67306;Laerm;57661;51.436;5.978;2024-01-16T00:28:15;28.25;27.36;29.09;;
67306;Laerm;57661;51.436;5.978;2024-01-16T00:28:25;28.28;27.40;29.39;;
67306;Laerm;57661;51.436;5.978;2024-01-16T00:28:35;28.27;27.37;29.17;;
67306;Laerm;57661;51.436;5.978;2024-01-16T00:28:46;28.26;27.33;29.25;;
67306;Laerm;57661;51.436;5.978;2024-01-16T00:28:56;28.24;27.29;29.29;;
67306;Laerm;57661;51.436;5.978;2024-01-16T00:29:06;28.21;27.17;29.14;;
67306;Laerm;57661;51.436;5.978;2024-01-16T00:29:16;28.19;27.35;28.97;;
67306;Laerm;57661;51.436;5.978;2024-01-16T00:29:26;28.24;27.37;29.15;;
67306;Laerm;57661;51.436;5.978;2024-01-16T00:29:40;28.25;27.21;29.47;;
67306;Laerm;57661;51.436;5.978;2024-01-16T00:29:51;28.22;27.41;28.93;;
67306;Laerm;57661;51.436;5.978;2024-01-16T00:30:01;28.21;27.21;29.14;;
67306;Laerm;57661;51.436;5.978;2024-01-16T00:30:11;28.26;27.20;29.24;;
67306;Laerm;57661;51.436;5.978;2024-01-16T00:30:22;28.26;27.37;32.03;;
67306;Laerm;57661;51.436;5.978;2024-01-16T00:30:32;28.26;27.33;29.15;;
67306;Laerm;57661;51.436;5.978;2024-01-16T00:30:43;28.24;27.17;29.02;;
67306;Laerm;57661;51.436;5.978;2024-01-16T00:30:53;28.25;27.10;28.98;;
67306;Laerm;57661;51.436;5.978;2024-01-16T00:31:06;28.23;27.39;29.18;;
67306;Laerm;57661;51.436;5.978;2024-01-16T00:31:18;28.66;27.01;35.05;;
67306;Laerm;57661;51.436;5.978;2024-01-16T00:31:28;28.24;27.21;29.06;;
67306;Laerm;57661;51.436;5.978;2024-01-16T00:31:39;28.24;27.00;29.24;;
67306;Laerm;57661;51.436;5.978;2024-01-16T00:31:49;28.29;27.27;29.20;;
67306;Laerm;57661;51.436;5.978;2024-01-16T00:31:59;28.23;27.20;29.13;;
67306;Laerm;57661;51.436;5.978;2024-01-16T00:32:10;28.25;27.26;29.18;;
67306;Laerm;57661;51.436;5.978;2024-01-16T00:32:20;28.26;27.24;29.12;;
67306;Laerm;57661;51.436;5.978;2024-01-16T00:32:30;28.23;27.18;29.00;;
67306;Laerm;57661;51.436;5.978;2024-01-16T00:32:40;28.22;27.26;29.06;;
67306;Laerm;57661;51.436;5.978;2024-01-16T00:32:50;28.24;27.28;29.09;;
67306;Laerm;57661;51.436;5.978;2024-01-16T00:33:02;28.23;27.27;29.16;;
67306;Laerm;57661;51.436;5.978;2024-01-16T00:33:12;28.25;27.25;29.03;;
67306;Laerm;57661;51.436;5.978;2024-01-16T00:33:23;28.27;27.41;29.20;;
67306;Laerm;57661;51.436;5.978;2024-01-16T00:33:33;28.23;27.20;29.11;;
67306;Laerm;57661;51.436;5.978;2024-01-16T00:33:43;28.25;27.25;29.11;;
67306;Laerm;57661;51.436;5.978;2024-01-16T00:33:53;28.25;27.22;29.36;;
67306;Laerm;57661;51.436;5.978;2024-01-16T00:34:04;28.25;27.25;29.07;;
67306;Laerm;57661;51.436;5.978;2024-01-16T00:34:14;28.26;27.42;29.20;;
67306;Laerm;57661;51.436;5.978;2024-01-16T00:34:24;28.26;27.44;29.23;;
67306;Laerm;57661;51.436;5.978;2024-01-16T00:34:34;28.24;27.07;29.18;;
67306;Laerm;57661;51.436;5.978;2024-01-16T00:34:45;28.31;27.07;29.28;;
67306;Laerm;57661;51.436;5.978;2024-01-16T00:34:55;28.22;27.43;29.25;;
67306;Laerm;57661;51.436;5.978;2024-01-16T00:35:05;28.96;27.18;34.37;;
67306;Laerm;57661;51.436;5.978;2024-01-16T00:35:15;35.92;29.64;43.18;;
67306;Laerm;57661;51.436;5.978;2024-01-16T00:35:26;34.69;31.73;38.31;;
67306;Laerm;57661;51.436;5.978;2024-01-16T00:35:36;33.97;27.88;39.16;;
67306;Laerm;57661;51.436;5.978;2024-01-16T00:35:46;28.27;27.15;29.14;;
67306;Laerm;57661;51.436;5.978;2024-01-16T00:35:56;28.25;27.27;29.04;;
67306;Laerm;57661;51.436;5.978;2024-01-16T00:36:06;28.27;27.40;29.09;;
67306;Laerm;57661;51.436;5.978;2024-01-16T00:36:17;28.25;27.45;29.21;;
67306;Laerm;57661;51.436;5.978;2024-01-16T00:36:27;28.24;27.39;29.26;;
67306;Laerm;57661;51.436;5.978;2024-01-16T00:36:37;28.25;27.12;29.21;;
67306;Laerm;57661;51.436;5.978;2024-01-16T00:36:47;28.26;27.40;29.26;;
67306;Laerm;57661;51.436;5.978;2024-01-16T00:36:57;28.24;27.29;29.24;;
67306;Laerm;57661;51.436;5.978;2024-01-16T00:37:08;28.39;27.29;36.20;;
67306;Laerm;57661;51.436;5.978;2024-01-16T00:37:18;28.31;27.32;31.91;;
67306;Laerm;57661;51.436;5.978;2024-01-16T00:37:28;28.28;27.34;29.13;;
67306;Laerm;57661;51.436;5.978;2024-01-16T00:37:38;28.28;27.16;29.21;;
67306;Laerm;57661;51.436;5.978;2024-01-16T00:37:49;28.26;27.32;29.38;;
67306;Laerm;57661;51.436;5.978;2024-01-16T00:38:02;28.23;27.34;29.32;;
67306;Laerm;57661;51.436;5.978;2024-01-16T00:38:12;28.21;26.97;29.22;;
67306;Laerm;57661;51.436;5.978;2024-01-16T00:38:22;28.25;27.19;29.15;;
67306;Laerm;57661;51.436;5.978;2024-01-16T00:38:33;28.26;27.35;29.18;;
67306;Laerm;57661;51.436;5.978;2024-01-16T00:38:43;28.25;27.29;28.96;;
67306;Laerm;57661;51.436;5.978;2024-01-16T00:38:53;28.26;27.38;29.41;;
67306;Laerm;57661;51.436;5.978;2024-01-16T00:39:06;28.25;27.14;29.03;;
67306;Laerm;57661;51.436;5.978;2024-01-16T00:39:18;28.24;27.21;29.19;;
67306;Laerm;57661;51.436;5.978;2024-01-16T00:39:28;28.22;27.38;29.10;;
67306;Laerm;57661;51.436;5.978;2024-01-16T00:39:38;28.25;27.39;29.07;;
67306;Laerm;57661;51.436;5.978;2024-01-16T00:39:48;28.25;27.38;29.08;;
67306;Laerm;57661;51.436;5.978;2024-01-16T00:39:59;28.25;27.16;29.03;;
67306;Laerm;57661;51.436;5.978;2024-01-16T00:40:09;28.24;27.41;29.13;;
67306;Laerm;57661;51.436;5.978;2024-01-16T00:40:19;28.20;27.20;29.25;;
67306;Laerm;57661;51.436;5.978;2024-01-16T00:40:29;28.25;27.32;29.18;;
67306;Laerm;57661;51.436;5.978;2024-01-16T00:40:40;28.25;27.26;29.15;;
67306;Laerm;57661;51.436;5.978;2024-01-16T00:40:50;28.23;27.38;29.04;;
67306;Laerm;57661;51.436;5.978;2024-01-16T00:41:00;28.26;27.48;29.16;;
67306;Laerm;57661;51.436;5.978;2024-01-16T00:41:11;28.26;27.34;29.18;;
67306;Laerm;57661;51.436;5.978;2024-01-16T00:41:22;28.27;27.46;29.13;;
67306;Laerm;57661;51.436;5.978;2024-01-16T00:41:32;39.40;27.85;48.62;;
67306;Laerm;57661;51.436;5.978;2024-01-16T00:41:42;38.16;33.40;44.50;;
67306;Laerm;57661;51.436;5.978;2024-01-16T00:41:52;37.90;32.00;42.37;;
67306;Laerm;57661;51.436;5.978;2024-01-16T00:42:02;35.27;30.32;42.35;;
67306;Laerm;57661;51.436;5.978;2024-01-16T00:42:13;35.25;30.75;41.41;;
67306;Laerm;57661;51.436;5.978;2024-01-16T00:42:23;31.50;27.51;38.84;;
67306;Laerm;57661;51.436;5.978;2024-01-16T00:42:33;28.32;27.35;29.00;;
67306;Laerm;57661;51.436;5.978;2024-01-16T00:42:47;28.27;27.43;29.21;;
67306;Laerm;57661;51.436;5.978;2024-01-16T00:42:57;28.23;27.33;29.22;;
67306;Laerm;57661;51.436;5.978;2024-01-16T00:43:07;28.26;27.40;29.09;;
67306;Laerm;57661;51.436;5.978;2024-01-16T00:43:18;28.24;27.44;29.05;;
67306;Laerm;57661;51.436;5.978;2024-01-16T00:43:28;28.27;27.08;29.24;;
67306;Laerm;57661;51.436;5.978;2024-01-16T00:43:39;28.23;27.34;29.03;;
67306;Laerm;57661;51.436;5.978;2024-01-16T00:43:49;28.23;27.44;29.26;;
67306;Laerm;57661;51.436;5.978;2024-01-16T00:43:59;28.24;27.15;29.31;;
67306;Laerm;57661;51.436;5.978;2024-01-16T00:44:10;28.26;27.24;28.97;;
67306;Laerm;57661;51.436;5.978;2024-01-16T00:44:20;28.25;27.26;29.14;;
67306;Laerm;57661;51.436;5.978;2024-01-16T00:44:31;28.25;27.38;29.09;;
67306;Laerm;57661;51.436;5.978;2024-01-16T00:44:41;28.23;27.17;29.04;;
67306;Laerm;57661;51.436;5.978;2024-01-16T00:44:51;28.26;27.31;29.09;;
67306;Laerm;57661;51.436;5.978;2024-01-16T00:45:01;28.25;27.12;29.13;;
67306;Laerm;57661;51.436;5.978;2024-01-16T00:45:12;28.28;27.27;29.18;;
67306;Laerm;57661;51.436;5.978;2024-01-16T00:45:22;28.24;27.18;29.07;;
67306;Laerm;57661;51.436;5.978;2024-01-16T00:45:32;28.23;27.32;29.24;;
67306;Laerm;57661;51.436;5.978;2024-01-16T00:45:42;28.32;27.38;32.47;;
67306;Laerm;57661;51.436;5.978;2024-01-16T00:45:53;28.28;27.43;29.01;;
67306;Laerm;57661;51.436;5.978;2024-01-16T00:46:03;28.27;27.43;29.03;;
67306;Laerm;57661;51.436;5.978;2024-01-16T00:46:13;28.24;27.20;29.12;;
67306;Laerm;57661;51.436;5.978;2024-01-16T00:46:23;28.26;27.45;29.20;;
67306;Laerm;57661;51.436;5.978;2024-01-16T00:46:34;28.26;27.13;29.53;;
67306;Laerm;57661;51.436;5.978;2024-01-16T00:46:44;28.25;27.25;29.12;;
67306;Laerm;57661;51.436;5.978;2024-01-16T00:46:54;28.25;27.23;29.22;;
67306;Laerm;57661;51.436;5.978;2024-01-16T00:47:04;28.22;27.33;29.43;;
67306;Laerm;57661;51.436;5.978;2024-01-16T00:47:15;28.24;27.39;29.07;;
67306;Laerm;57661;51.436;5.978;2024-01-16T00:47:25;28.25;27.29;29.26;;
67306;Laerm;57661;51.436;5.978;2024-01-16T00:47:36;28.23;27.23;29.15;;
67306;Laerm;57661;51.436;5.978;2024-01-16T00:47:46;28.29;27.16;29.09;;
67306;Laerm;57661;51.436;5.978;2024-01-16T00:47:56;28.27;27.24;29.33;;
67306;Laerm;57661;51.436;5.978;2024-01-16T00:48:06;28.21;27.17;29.14;;
67306;Laerm;57661;51.436;5.978;2024-01-16T00:48:16;28.26;27.20;29.09;;
67306;Laerm;57661;51.436;5.978;2024-01-16T00:48:28;28.26;27.34;28.98;;
67306;Laerm;57661;51.436;5.978;2024-01-16T00:48:38;28.27;27.12;29.01;;
67306;Laerm;57661;51.436;5.978;2024-01-16T00:48:48;28.24;27.07;29.11;;
67306;Laerm;57661;51.436;5.978;2024-01-16T00:48:59;28.29;27.30;29.32;;
67306;Laerm;57661;51.436;5.978;2024-01-16T00:49:09;28.24;27.01;29.23;;
67306;Laerm;57661;51.436;5.978;2024-01-16T00:49:19;28.24;27.28;29.11;;
67306;Laerm;57661;51.436;5.978;2024-01-16T00:49:32;28.24;27.21;28.99;;
67306;Laerm;57661;51.436;5.978;2024-01-16T00:49:42;28.21;27.24;29.01;;
67306;Laerm;57661;51.436;5.978;2024-01-16T00:49:52;28.25;27.26;28.96;;
67306;Laerm;57661;51.436;5.978;2024-01-16T00:50:02;28.26;27.05;29.45;;
67306;Laerm;57661;51.436;5.978;2024-01-16T00:50:13;28.28;27.39;29.09;;
67306;Laerm;57661;51.436;5.978;2024-01-16T00:50:23;28.25;27.23;29.13;;
67306;Laerm;57661;51.436;5.978;2024-01-16T00:50:34;28.27;27.29;29.21;;
67306;Laerm;57661;51.436;5.978;2024-01-16T00:50:44;28.25;27.21;29.07;;
67306;Laerm;57661;51.436;5.978;2024-01-16T00:50:56;28.26;27.32;30.14;;
67306;Laerm;57661;51.436;5.978;2024-01-16T00:51:06;28.27;27.29;29.35;;
67306;Laerm;57661;51.436;5.978;2024-01-16T00:51:16;28.24;27.13;29.13;;
67306;Laerm;57661;51.436;5.978;2024-01-16T00:51:26;28.25;27.20;29.09;;
67306;Laerm;57661;51.436;5.978;2024-01-16T00:51:36;28.21;27.29;29.10;;
67306;Laerm;57661;51.436;5.978;2024-01-16T00:51:47;28.25;27.47;29.25;;
67306;Laerm;57661;51.436;5.978;2024-01-16T00:51:57;28.24;27.14;29.16;;
67306;Laerm;57661;51.436;5.978;2024-01-16T00:52:07;28.25;27.30;29.22;;
67306;Laerm;57661;51.436;5.978;2024-01-16T00:52:17;28.27;27.35;29.09;;
67306;Laerm;57661;51.436;5.978;2024-01-16T00:52:28;28.20;26.96;29.07;;
67306;Laerm;57661;51.436;5.978;2024-01-16T00:52:38;28.21;27.38;29.24;;
67306;Laerm;57661;51.436;5.978;2024-01-16T00:52:48;29.19;27.31;44.83;;
67306;Laerm;57661;51.436;5.978;2024-01-16T00:52:58;28.21;27.22;29.25;;
67306;Laerm;57661;51.436;5.978;2024-01-16T00:53:09;28.25;27.25;29.19;;
67306;Laerm;57661;51.436;5.978;2024-01-16T00:53:19;28.22;27.16;29.16;;
67306;Laerm;57661;51.436;5.978;2024-01-16T00:53:29;28.26;27.47;29.24;;
67306;Laerm;57661;51.436;5.978;2024-01-16T00:53:42;28.96;27.18;42.04;;
67306;Laerm;57661;51.436;5.978;2024-01-16T00:53:53;28.28;27.32;29.26;;
67306;Laerm;57661;51.436;5.978;2024-01-16T00:54:03;28.25;27.29;29.30;;
67306;Laerm;57661;51.436;5.978;2024-01-16T00:54:13;28.23;27.20;29.22;;
67306;Laerm;57661;51.436;5.978;2024-01-16T00:54:23;28.19;27.33;29.09;;
67306;Laerm;57661;51.436;5.978;2024-01-16T00:54:34;28.24;27.14;29.28;;
67306;Laerm;57661;51.436;5.978;2024-01-16T00:54:44;28.25;27.24;29.30;;
67306;Laerm;57661;51.436;5.978;2024-01-16T00:54:55;28.25;27.22;29.16;;
67306;Laerm;57661;51.436;5.978;2024-01-16T00:55:05;28.28;27.23;29.17;;
67306;Laerm;57661;51.436;5.978;2024-01-16T00:55:15;28.24;27.43;30.98;;
67306;Laerm;57661;51.436;5.978;2024-01-16T00:55:25;28.24;27.45;29.15;;
67306;Laerm;57661;51.436;5.978;2024-01-16T00:55:35;28.26;27.28;29.21;;
67306;Laerm;57661;51.436;5.978;2024-01-16T00:55:46;28.25;27.10;29.15;;
67306;Laerm;57661;51.436;5.978;2024-01-16T00:55:56;28.24;27.39;29.15;;
67306;Laerm;57661;51.436;5.978;2024-01-16T00:56:06;28.25;27.29;29.22;;
67306;Laerm;57661;51.436;5.978;2024-01-16T00:56:16;28.21;27.31;29.01;;
67306;Laerm;57661;51.436;5.978;2024-01-16T00:56:27;28.27;27.43;29.19;;
67306;Laerm;57661;51.436;5.978;2024-01-16T00:56:37;28.26;27.30;29.31;;
67306;Laerm;57661;51.436;5.978;2024-01-16T00:56:48;28.26;27.17;29.33;;
67306;Laerm;57661;51.436;5.978;2024-01-16T00:56:58;28.23;27.18;29.07;;
67306;Laerm;57661;51.436;5.978;2024-01-16T00:57:09;28.27;27.06;29.22;;
67306;Laerm;57661;51.436;5.978;2024-01-16T00:57:19;28.27;27.34;29.50;;
67306;Laerm;57661;51.436;5.978;2024-01-16T00:57:30;28.23;27.37;29.04;;
67306;Laerm;57661;51.436;5.978;2024-01-16T00:57:40;28.27;27.31;29.00;;
67306;Laerm;57661;51.436;5.978;2024-01-16T00:57:51;28.25;27.35;28.97;;
67306;Laerm;57661;51.436;5.978;2024-01-16T00:58:01;28.23;27.12;29.20;;
67306;Laerm;57661;51.436;5.978;2024-01-16T00:58:12;28.26;27.19;29.40;;
67306;Laerm;57661;51.436;5.978;2024-01-16T00:58:22;28.22;27.30;29.30;;
67306;Laerm;57661;51.436;5.978;2024-01-16T00:58:33;28.28;27.24;29.10;;
67306;Laerm;57661;51.436;5.978;2024-01-16T00:58:43;28.25;27.23;29.12;;
67306;Laerm;57661;51.436;5.978;2024-01-16T00:58:53;28.25;27.23;29.11;;